createdAt,value
2022-12-24T03:59:40.796Z,20.49
2022-12-24T04:00:40.811Z,20.46
2022-12-24T04:01:40.836Z,20.46
2022-12-24T04:02:40.913Z,20.49
2022-12-24T04:03:40.725Z,20.49
2022-12-24T04:04:40.720Z,20.51
2022-12-24T04:05:40.715Z,20.49
2022-12-24T04:06:40.703Z,20.48
2022-12-24T04:07:40.705Z,20.60
2022-12-24T04:08:40.697Z,20.44
2022-12-24T04:09:40.713Z,20.61
2022-12-24T04:10:40.679Z,20.56
2022-12-24T04:11:40.675Z,20.60
2022-12-24T04:12:40.675Z,20.54
2022-12-24T04:13:40.668Z,20.51
2022-12-24T04:14:40.661Z,20.56
2022-12-24T04:15:40.674Z,20.61
2022-12-24T04:16:40.683Z,20.66
2022-12-24T04:17:40.661Z,20.67
2022-12-24T04:18:40.674Z,20.66
2022-12-24T04:19:40.640Z,20.71
2022-12-24T04:20:40.621Z,20.72
2022-12-24T04:21:40.626Z,20.78
2022-12-24T04:22:40.614Z,20.66
2022-12-24T04:23:40.664Z,20.71
2022-12-24T04:24:40.605Z,20.76
2022-12-24T04:25:40.602Z,20.68
2022-12-24T04:26:40.606Z,20.72
2022-12-24T04:27:40.601Z,20.81
2022-12-24T04:28:40.612Z,20.76
2022-12-24T04:29:40.606Z,20.82
2022-12-24T04:30:40.595Z,20.83
2022-12-24T04:31:40.667Z,20.88
2022-12-24T04:32:40.570Z,20.79
2022-12-24T04:33:40.579Z,20.82
2022-12-24T04:34:40.568Z,20.83
2022-12-24T04:35:40.565Z,20.81
2022-12-24T04:36:40.559Z,20.86
2022-12-24T04:37:40.571Z,20.90
2022-12-24T04:38:40.563Z,20.93
2022-12-24T04:39:40.573Z,20.91
2022-12-24T04:40:40.538Z,20.94
2022-12-24T04:41:40.532Z,20.86
2022-12-24T04:42:40.531Z,20.85
2022-12-24T04:43:40.528Z,20.88
2022-12-24T04:44:40.534Z,20.86
2022-12-24T04:45:40.529Z,20.85
2022-12-24T04:46:40.520Z,20.98
2022-12-24T04:47:40.529Z,21.01
2022-12-24T04:48:40.519Z,21.04
2022-12-24T04:49:40.527Z,21.01
2022-12-24T04:50:40.496Z,20.96
2022-12-24T04:51:40.495Z,21.03
2022-12-24T04:52:40.489Z,21.06
2022-12-24T04:53:40.501Z,21.06
2022-12-24T04:54:40.499Z,21.01
2022-12-24T04:55:40.481Z,21.00
2022-12-24T04:56:40.484Z,21.03
2022-12-24T04:57:40.471Z,21.03
2022-12-24T04:58:40.473Z,21.03
2022-12-24T04:59:40.483Z,21.11
2022-12-24T05:00:40.459Z,21.04
2022-12-24T05:01:40.561Z,21.00
2022-12-24T05:02:40.595Z,21.04
2022-12-24T05:03:40.469Z,21.08
2022-12-24T05:04:40.480Z,21.08
2022-12-24T05:05:40.447Z,21.01
2022-12-24T05:06:40.457Z,21.04
2022-12-24T05:07:40.430Z,21.12
2022-12-24T05:08:40.433Z,21.06
2022-12-24T05:09:40.450Z,21.06
2022-12-24T05:10:40.428Z,21.01
2022-12-24T05:11:40.419Z,21.03
2022-12-24T05:12:40.415Z,21.04
2022-12-24T05:13:46.230Z,20.98
2022-12-24T05:14:40.413Z,20.96
2022-12-24T05:15:40.401Z,21.04
2022-12-24T05:16:40.439Z,21.01
2022-12-24T05:17:40.390Z,20.98
2022-12-24T05:18:40.429Z,21.09
2022-12-24T05:19:40.389Z,21.08
2022-12-24T05:20:40.383Z,21.03
2022-12-24T05:21:40.365Z,21.12
2022-12-24T05:22:40.365Z,21.06
2022-12-24T05:23:40.362Z,21.12
2022-12-24T05:24:40.375Z,21.06
2022-12-24T05:25:40.354Z,21.08
2022-12-24T05:26:40.351Z,21.08
2022-12-24T05:27:41.784Z,21.06
2022-12-24T05:28:40.349Z,21.11
2022-12-24T05:29:40.339Z,21.08
2022-12-24T05:30:40.363Z,21.08
2022-12-24T05:31:40.425Z,21.08
2022-12-24T05:32:40.326Z,21.11
2022-12-24T05:33:40.346Z,21.04
2022-12-24T05:34:40.320Z,21.08
2022-12-24T05:35:40.374Z,21.09
2022-12-24T05:36:40.330Z,21.09
2022-12-24T05:37:40.306Z,21.04
2022-12-24T05:38:40.310Z,21.09
2022-12-24T05:39:40.305Z,21.06
2022-12-24T05:40:40.296Z,21.06
2022-12-24T05:41:40.298Z,21.04
2022-12-24T05:42:40.310Z,21.09
2022-12-24T05:43:40.285Z,21.03
2022-12-24T05:44:40.283Z,21.09
2022-12-24T05:45:40.288Z,21.06
2022-12-24T05:46:40.323Z,21.08
2022-12-24T05:47:43.454Z,21.08
2022-12-24T05:48:40.274Z,21.08
2022-12-24T05:49:40.254Z,21.06
2022-12-24T05:50:40.263Z,21.04
2022-12-24T05:51:40.454Z,21.03
2022-12-24T05:52:40.249Z,21.04
2022-12-24T05:53:40.242Z,21.03
2022-12-24T05:54:40.238Z,21.04
2022-12-24T05:55:40.235Z,21.06
2022-12-24T05:56:40.231Z,21.13
2022-12-24T05:57:40.225Z,21.04
2022-12-24T05:58:40.234Z,20.97
2022-12-24T05:59:40.222Z,21.06
2022-12-24T06:00:40.210Z,21.03
2022-12-24T06:01:40.277Z,20.97
2022-12-24T06:02:40.254Z,21.03
2022-12-24T06:03:40.212Z,20.97
2022-12-24T06:04:40.266Z,21.08
2022-12-24T06:05:40.191Z,21.04
2022-12-24T06:06:40.191Z,21.04
2022-12-24T06:07:40.202Z,21.04
2022-12-24T06:08:40.186Z,21.00
2022-12-24T06:09:40.183Z,21.03
2022-12-24T06:10:40.184Z,21.00
2022-12-24T06:11:40.171Z,21.00
2022-12-24T06:12:40.162Z,21.08
2022-12-24T06:13:40.165Z,21.01
2022-12-24T06:14:40.160Z,20.98
2022-12-24T06:15:40.194Z,21.01
2022-12-24T06:16:40.349Z,21.00
2022-12-24T06:17:40.142Z,21.01
2022-12-24T06:18:40.146Z,20.97
2022-12-24T06:19:40.135Z,21.01
2022-12-24T06:20:40.133Z,21.00
2022-12-24T06:21:40.144Z,21.04
2022-12-24T06:22:40.137Z,21.03
2022-12-24T06:23:40.151Z,21.04
2022-12-24T06:24:40.113Z,21.01
2022-12-24T06:25:40.106Z,21.01
2022-12-24T06:26:40.124Z,21.01
2022-12-24T06:27:40.105Z,20.98
2022-12-24T06:28:40.127Z,21.01
2022-12-24T06:29:40.094Z,21.04
2022-12-24T06:30:40.089Z,20.96
2022-12-24T06:31:40.161Z,21.03
2022-12-24T06:32:40.082Z,21.01
2022-12-24T06:33:40.074Z,20.98
2022-12-24T06:34:40.088Z,21.03
2022-12-24T06:35:40.074Z,21.08
2022-12-24T06:36:40.080Z,21.00
2022-12-24T06:37:40.073Z,21.00
2022-12-24T06:38:40.057Z,20.98
2022-12-24T06:39:40.068Z,20.98
2022-12-24T06:40:40.053Z,21.04
2022-12-24T06:41:40.052Z,20.94
2022-12-24T06:42:40.048Z,21.04
2022-12-24T06:43:40.054Z,21.03
2022-12-24T06:44:40.049Z,20.91
2022-12-24T06:45:40.042Z,21.01
2022-12-24T06:46:40.143Z,21.00
2022-12-24T06:47:40.029Z,21.03
2022-12-24T06:48:40.033Z,21.04
2022-12-24T06:49:40.032Z,21.06
2022-12-24T06:50:40.024Z,21.04
2022-12-24T06:51:40.006Z,20.96
2022-12-24T06:52:39.999Z,20.96
2022-12-24T06:53:40.044Z,20.96
2022-12-24T06:54:40.006Z,21.06
2022-12-24T06:55:40.003Z,21.01
2022-12-24T06:56:39.995Z,20.94
2022-12-24T06:57:39.978Z,21.09
2022-12-24T06:58:39.978Z,21.18
2022-12-24T06:59:39.995Z,21.01
2022-12-24T07:00:40.009Z,21.01
2022-12-24T07:01:40.099Z,21.08
2022-12-24T07:02:40.038Z,21.11
2022-12-24T07:03:39.981Z,21.11
2022-12-24T07:04:39.949Z,21.04
2022-12-24T07:05:39.960Z,21.06
2022-12-24T07:06:39.956Z,21.03
2022-12-24T07:07:39.940Z,21.11
2022-12-24T07:08:39.936Z,21.04
2022-12-24T07:09:39.941Z,21.06
2022-12-24T07:10:39.933Z,21.04
2022-12-24T07:11:39.953Z,21.03
2022-12-24T07:12:39.918Z,21.04
2022-12-24T07:13:39.922Z,21.08
2022-12-24T07:14:39.921Z,21.06
2022-12-24T07:15:39.954Z,21.04
2022-12-24T07:16:40.041Z,21.04
2022-12-24T07:17:39.974Z,21.09
2022-12-24T07:18:39.896Z,21.09
2022-12-24T07:19:39.883Z,21.08
2022-12-24T07:20:39.905Z,21.04
2022-12-24T07:21:39.878Z,21.12
2022-12-24T07:22:39.890Z,21.09
2022-12-24T07:23:39.908Z,21.08
2022-12-24T07:24:39.869Z,21.08
2022-12-24T07:25:39.870Z,21.09
2022-12-24T07:26:39.856Z,21.08
2022-12-24T07:27:39.898Z,21.09
2022-12-24T07:28:39.862Z,21.12
2022-12-24T07:29:39.860Z,21.03
2022-12-24T07:30:39.847Z,21.11
2022-12-24T07:31:39.916Z,21.04
2022-12-24T07:32:39.849Z,21.09
2022-12-24T07:33:39.835Z,21.13
2022-12-24T07:34:39.865Z,21.06
2022-12-24T07:35:39.835Z,21.09
2022-12-24T07:36:39.820Z,21.11
2022-12-24T07:37:39.828Z,21.12
2022-12-24T07:38:39.833Z,21.09
2022-12-24T07:39:39.818Z,21.03
2022-12-24T07:40:39.860Z,21.12
2022-12-24T07:41:41.872Z,21.13
2022-12-24T07:42:39.804Z,21.11
2022-12-24T07:43:39.841Z,21.13
2022-12-24T07:44:39.807Z,21.09
2022-12-24T07:45:39.792Z,21.16
2022-12-24T07:46:39.862Z,21.16
2022-12-24T07:47:39.793Z,21.12
2022-12-24T07:48:39.784Z,21.06
2022-12-24T07:49:39.770Z,21.15
2022-12-24T07:50:39.803Z,21.12
2022-12-24T07:51:39.786Z,21.16
2022-12-24T07:52:39.764Z,21.18
2022-12-24T07:53:39.765Z,21.19
2022-12-24T07:54:39.764Z,21.18
2022-12-24T07:55:39.744Z,21.22
2022-12-24T07:56:39.752Z,21.18
2022-12-24T07:57:39.751Z,21.23
2022-12-24T07:58:39.754Z,21.19
2022-12-24T07:59:39.754Z,21.18
2022-12-24T08:00:39.754Z,21.23
2022-12-24T08:01:39.880Z,21.27
2022-12-24T08:02:39.936Z,21.25
2022-12-24T08:03:39.913Z,21.16
2022-12-24T08:04:39.717Z,21.16
2022-12-24T08:05:39.725Z,21.16
2022-12-24T08:06:39.720Z,21.19
2022-12-24T08:07:39.695Z,21.21
2022-12-24T08:08:39.692Z,21.16
2022-12-24T08:09:39.726Z,21.22
2022-12-24T08:10:39.686Z,21.21
2022-12-24T08:11:39.695Z,21.19
2022-12-24T08:12:39.671Z,21.27
2022-12-24T08:13:39.672Z,21.23
2022-12-24T08:14:39.680Z,21.30
2022-12-24T08:15:39.672Z,21.25
2022-12-24T08:16:39.744Z,21.25
2022-12-24T08:17:39.651Z,21.27
2022-12-24T08:18:39.671Z,21.36
2022-12-24T08:19:39.674Z,21.33
2022-12-24T08:20:39.666Z,21.28
2022-12-24T08:21:39.637Z,21.27
2022-12-24T08:22:39.636Z,21.25
2022-12-24T08:23:39.655Z,21.30
2022-12-24T08:24:39.641Z,21.28
2022-12-24T08:25:39.620Z,21.31
2022-12-24T08:26:39.621Z,21.31
2022-12-24T08:27:39.618Z,21.27
2022-12-24T08:28:39.623Z,21.30
2022-12-24T08:29:39.620Z,21.34
2022-12-24T08:30:39.629Z,21.34
2022-12-24T08:31:39.666Z,21.34
2022-12-24T08:32:39.592Z,21.34
2022-12-24T08:33:39.600Z,21.31
2022-12-24T08:34:39.607Z,21.33
2022-12-24T08:35:39.593Z,21.36
2022-12-24T08:36:39.576Z,21.34
2022-12-24T08:37:39.590Z,21.36
2022-12-24T08:38:39.587Z,21.40
2022-12-24T08:39:39.609Z,21.37
2022-12-24T08:40:39.591Z,21.33
2022-12-24T08:41:39.554Z,21.37
2022-12-24T08:42:39.636Z,21.33
2022-12-24T08:43:39.553Z,21.38
2022-12-24T08:44:39.555Z,21.36
2022-12-24T08:45:40.909Z,21.43
2022-12-24T08:46:39.584Z,21.40
2022-12-24T08:47:39.573Z,21.46
2022-12-24T08:48:39.540Z,21.53
2022-12-24T08:49:39.557Z,21.53
2022-12-24T08:50:39.523Z,21.52
2022-12-24T08:51:39.526Z,21.45
2022-12-24T08:52:39.537Z,21.53
2022-12-24T08:53:39.528Z,21.55
2022-12-24T08:54:39.531Z,21.45
2022-12-24T08:55:39.520Z,21.43
2022-12-24T08:56:39.504Z,21.49
2022-12-24T08:57:39.500Z,21.46
2022-12-24T08:58:39.509Z,21.48
2022-12-24T08:59:39.504Z,21.46
2022-12-24T09:00:39.553Z,21.52
2022-12-24T09:01:39.632Z,21.52
2022-12-24T09:02:39.602Z,21.45
2022-12-24T09:03:39.623Z,21.59
2022-12-24T09:04:39.476Z,21.53
2022-12-24T09:05:39.496Z,21.46
2022-12-24T09:06:39.489Z,21.55
2022-12-24T09:07:39.471Z,21.55
2022-12-24T09:08:39.470Z,21.59
2022-12-24T09:09:39.453Z,21.53
2022-12-24T09:10:39.483Z,21.49
2022-12-24T09:11:39.444Z,21.49
2022-12-24T09:12:39.444Z,21.51
2022-12-24T09:13:39.440Z,21.64
2022-12-24T09:14:39.431Z,21.53
2022-12-24T09:15:39.433Z,21.62
2022-12-24T09:16:39.462Z,21.61
2022-12-24T09:17:39.437Z,21.64
2022-12-24T09:18:39.438Z,21.59
2022-12-24T09:19:39.422Z,21.62
2022-12-24T09:20:44.291Z,21.58
2022-12-24T09:21:39.425Z,21.58
2022-12-24T09:22:39.409Z,21.64
2022-12-24T09:23:39.416Z,21.58
2022-12-24T09:24:39.403Z,21.66
2022-12-24T09:25:39.405Z,21.62
2022-12-24T09:26:39.393Z,21.58
2022-12-24T09:27:39.391Z,21.71
2022-12-24T09:28:39.382Z,21.66
2022-12-24T09:29:39.379Z,21.64
2022-12-24T09:30:39.394Z,21.66
2022-12-24T09:31:39.459Z,21.73
2022-12-24T09:32:39.365Z,21.73
2022-12-24T09:33:39.367Z,21.68
2022-12-24T09:34:39.384Z,21.71
2022-12-24T09:35:39.380Z,21.70
2022-12-24T09:36:39.360Z,21.71
2022-12-24T09:37:39.364Z,21.74
2022-12-24T09:38:39.351Z,21.76
2022-12-24T09:39:39.340Z,21.77
2022-12-24T09:40:39.355Z,21.77
2022-12-24T09:41:39.348Z,21.78
2022-12-24T09:42:39.338Z,21.76
2022-12-24T09:43:39.338Z,21.77
2022-12-24T09:44:39.337Z,21.77
2022-12-24T09:45:39.349Z,21.76
2022-12-24T09:46:39.338Z,21.78
2022-12-24T09:47:39.316Z,21.78
2022-12-24T09:48:39.311Z,21.70
2022-12-24T09:49:39.310Z,21.77
2022-12-24T09:50:39.307Z,21.76
2022-12-24T09:51:39.349Z,21.78
2022-12-24T09:52:39.302Z,21.74
2022-12-24T09:53:39.309Z,21.74
2022-12-24T09:54:43.019Z,21.76
2022-12-24T09:55:39.321Z,21.78
2022-12-24T09:56:39.308Z,21.76
2022-12-24T09:57:39.285Z,21.78
2022-12-24T09:58:39.275Z,21.70
2022-12-24T09:59:40.179Z,21.78
2022-12-24T10:00:43.167Z,21.76
2022-12-24T10:01:39.339Z,21.76
2022-12-24T10:02:39.470Z,21.74
2022-12-24T10:13:52.188Z,21.78
2022-12-24T10:14:52.157Z,21.77
2022-12-24T10:15:52.168Z,21.71
2022-12-24T10:16:52.185Z,21.73
2022-12-24T10:17:52.140Z,21.70
2022-12-24T10:18:52.144Z,21.73
2022-12-24T10:19:52.122Z,21.73
2022-12-24T10:20:52.118Z,21.66
2022-12-24T10:21:52.118Z,21.74
2022-12-24T10:22:52.123Z,21.70
2022-12-24T10:23:52.109Z,21.73
2022-12-24T10:24:52.141Z,21.71
2022-12-24T10:25:52.092Z,21.74
2022-12-24T10:26:52.090Z,21.73
2022-12-24T10:27:52.097Z,21.70
2022-12-24T10:28:52.096Z,21.71
2022-12-24T10:29:52.102Z,21.70
2022-12-24T10:30:52.143Z,21.68
2022-12-24T10:31:52.070Z,21.73
2022-12-24T10:32:52.067Z,21.71
2022-12-24T10:33:52.070Z,21.76
2022-12-24T10:34:52.070Z,21.74
2022-12-24T10:35:52.088Z,21.80
2022-12-24T10:36:52.069Z,21.80
2022-12-24T10:37:52.049Z,21.77
2022-12-24T10:38:52.074Z,21.77
2022-12-24T10:39:52.041Z,21.82
2022-12-24T10:40:52.034Z,21.85
2022-12-24T10:41:52.036Z,21.78
2022-12-24T10:42:52.068Z,21.77
2022-12-24T10:43:52.026Z,21.83
2022-12-24T10:44:52.030Z,21.78
2022-12-24T10:45:52.073Z,21.76
2022-12-24T10:46:52.030Z,21.83
2022-12-24T10:47:52.024Z,21.90
2022-12-24T10:48:52.008Z,21.93
2022-12-24T10:49:52.031Z,21.90
2022-12-24T10:50:52.012Z,22.00
2022-12-24T10:51:52.005Z,22.04
2022-12-24T10:52:52.003Z,22.04
2022-12-24T10:53:52.020Z,21.99
2022-12-24T10:54:51.988Z,22.07
2022-12-24T10:55:51.980Z,22.07
2022-12-24T10:56:51.986Z,22.07
2022-12-24T10:57:51.974Z,22.07
2022-12-24T10:58:51.971Z,22.05
2022-12-24T10:59:51.972Z,22.08
2022-12-24T11:00:51.990Z,22.14
2022-12-24T11:01:52.109Z,22.11
2022-12-24T11:02:52.213Z,22.07
2022-12-24T11:03:52.024Z,22.08
2022-12-24T11:04:51.971Z,22.15
2022-12-24T11:05:51.949Z,22.20
2022-12-24T11:06:51.944Z,22.20
2022-12-24T11:07:51.936Z,22.20
2022-12-24T11:08:51.942Z,22.20
2022-12-24T11:09:51.953Z,22.22
2022-12-24T11:10:51.935Z,22.07
2022-12-24T11:11:51.925Z,22.14
2022-12-24T11:13:12.656Z,22.23
2022-12-24T11:13:51.949Z,22.24
2022-12-24T11:14:51.951Z,22.07
2022-12-24T11:15:51.994Z,22.11
2022-12-24T11:16:51.915Z,22.22
2022-12-24T11:17:51.929Z,22.23
2022-12-24T11:18:52.295Z,22.22
2022-12-24T11:19:51.907Z,22.26
2022-12-24T11:20:51.905Z,22.27
2022-12-24T11:21:51.931Z,22.27
2022-12-24T11:22:51.898Z,22.23
2022-12-24T11:23:51.885Z,22.29
2022-12-24T11:24:51.881Z,22.27
2022-12-24T11:25:51.878Z,22.16
2022-12-24T11:26:51.878Z,22.34
2022-12-24T11:27:51.968Z,22.20
2022-12-24T11:28:51.870Z,22.26
2022-12-24T11:29:51.862Z,22.26
2022-12-24T11:30:51.910Z,22.29
2022-12-24T11:31:51.861Z,22.29
2022-12-24T11:32:51.857Z,22.23
2022-12-24T11:33:51.881Z,22.30
2022-12-24T11:34:51.855Z,22.33
2022-12-24T11:35:51.860Z,22.29
2022-12-24T11:36:51.844Z,22.24
2022-12-24T11:37:51.844Z,22.23
2022-12-24T11:38:51.848Z,22.27
2022-12-24T11:39:51.841Z,22.36
2022-12-24T11:40:51.833Z,22.31
2022-12-24T11:41:51.831Z,22.29
2022-12-24T11:42:51.823Z,22.23
2022-12-24T11:43:51.817Z,22.24
2022-12-24T11:44:51.818Z,22.27
2022-12-24T11:45:51.819Z,22.22
2022-12-24T11:46:51.888Z,22.26
2022-12-24T11:47:51.818Z,22.30
2022-12-24T11:48:51.819Z,22.24
2022-12-24T11:49:51.847Z,22.26
2022-12-24T11:50:51.830Z,22.26
2022-12-24T11:51:51.796Z,22.26
2022-12-24T11:52:51.803Z,22.22
2022-12-24T11:53:51.798Z,22.29
2022-12-24T11:54:51.782Z,22.22
2022-12-24T11:55:51.780Z,22.27
2022-12-24T11:56:51.787Z,22.27
2022-12-24T11:57:51.790Z,22.30
2022-12-24T11:58:51.786Z,22.33
2022-12-24T11:59:51.777Z,22.36
2022-12-24T12:00:51.775Z,22.23
2022-12-24T12:01:51.792Z,22.26
2022-12-24T12:02:51.836Z,22.23
2022-12-24T12:03:51.874Z,22.29
2022-12-24T12:04:51.754Z,22.29
2022-12-24T12:05:51.760Z,22.27
2022-12-24T12:06:51.745Z,22.26
2022-12-24T12:07:51.760Z,22.31
2022-12-24T12:08:51.744Z,22.30
2022-12-24T12:09:51.741Z,22.23
2022-12-24T12:10:51.751Z,22.26
2022-12-24T12:11:51.734Z,22.26
2022-12-24T12:12:51.738Z,22.33
2022-12-24T12:13:51.759Z,22.18
2022-12-24T12:14:51.753Z,22.24
2022-12-24T12:15:51.755Z,22.27
2022-12-24T12:16:51.710Z,22.18
2022-12-24T12:17:51.717Z,22.23
2022-12-24T12:18:51.720Z,22.26
2022-12-24T12:19:51.714Z,22.22
2022-12-24T12:20:51.713Z,22.29
2022-12-24T12:21:51.715Z,22.27
2022-12-24T12:22:51.701Z,22.23
2022-12-24T12:23:51.700Z,22.24
2022-12-24T12:24:51.687Z,22.23
2022-12-24T12:25:51.681Z,22.20
2022-12-24T12:26:51.685Z,22.22
2022-12-24T12:27:51.691Z,22.15
2022-12-24T12:28:51.693Z,22.12
2022-12-24T12:29:51.684Z,22.11
2022-12-24T12:30:51.670Z,22.09
2022-12-24T12:31:51.786Z,22.20
2022-12-24T12:32:51.729Z,22.26
2022-12-24T12:33:51.661Z,22.07
2022-12-24T12:34:51.660Z,22.11
2022-12-24T12:35:51.652Z,22.26
2022-12-24T12:36:51.645Z,22.26
2022-12-24T12:37:51.659Z,22.23
2022-12-24T12:38:51.654Z,22.39
2022-12-24T12:39:51.649Z,22.46
2022-12-24T12:40:51.650Z,22.46
2022-12-24T12:41:51.631Z,22.49
2022-12-24T12:42:51.622Z,22.48
2022-12-24T12:43:51.624Z,22.57
2022-12-24T12:44:51.630Z,22.71
2022-12-24T12:45:51.647Z,22.69
2022-12-24T12:46:51.694Z,22.73
2022-12-24T12:47:51.615Z,22.78
2022-12-24T12:48:55.667Z,22.88
2022-12-24T12:49:51.613Z,23.06
2022-12-24T12:50:51.608Z,23.16
2022-12-24T12:51:51.620Z,23.12
2022-12-24T12:52:51.600Z,23.07
2022-12-24T12:53:51.629Z,23.09
2022-12-24T12:54:51.591Z,23.04
2022-12-24T12:55:51.608Z,23.06
2022-12-24T12:56:51.588Z,23.14
2022-12-24T12:57:51.591Z,23.12
2022-12-24T12:58:51.588Z,23.16
2022-12-24T12:59:51.611Z,23.14
2022-12-24T13:00:51.652Z,23.18
2022-12-24T13:01:51.758Z,23.21
2022-12-24T13:02:51.794Z,23.18
2022-12-24T13:03:51.598Z,23.21
2022-12-24T13:04:51.573Z,23.22
2022-12-24T13:05:51.573Z,23.38
2022-12-24T13:06:51.575Z,23.40
2022-12-24T13:07:51.566Z,23.37
2022-12-24T13:08:51.604Z,23.37
2022-12-24T13:09:51.585Z,23.41
2022-12-24T13:10:51.561Z,23.35
2022-12-24T13:11:51.575Z,23.21
2022-12-24T13:12:51.564Z,23.34
2022-12-24T13:13:51.556Z,23.21
2022-12-24T13:14:51.578Z,23.25
2022-12-24T13:15:51.616Z,23.22
2022-12-24T13:16:51.625Z,23.18
2022-12-24T13:17:51.563Z,23.16
2022-12-24T13:18:51.556Z,23.09
2022-12-24T13:19:51.535Z,23.10
2022-12-24T13:20:51.560Z,23.15
2022-12-24T13:21:51.529Z,23.16
2022-12-24T13:22:51.525Z,23.24
2022-12-24T13:23:51.542Z,23.24
2022-12-24T13:24:52.328Z,23.26
2022-12-24T13:25:51.528Z,23.21
2022-12-24T13:26:51.549Z,23.24
2022-12-24T13:27:51.523Z,23.37
2022-12-24T13:28:51.570Z,23.44
2022-12-24T13:29:51.517Z,23.40
2022-12-24T13:30:51.516Z,23.37
2022-12-24T13:31:51.582Z,23.40
2022-12-24T13:32:51.532Z,23.42
2022-12-24T13:33:51.532Z,23.37
2022-12-24T13:34:51.517Z,23.34
2022-12-24T13:35:51.509Z,23.34
2022-12-24T13:36:51.493Z,23.19
2022-12-24T13:37:51.517Z,23.26
2022-12-24T13:38:51.504Z,23.21
2022-12-24T13:39:51.522Z,23.25
2022-12-24T13:40:51.489Z,23.25
2022-12-24T13:41:51.504Z,23.21
2022-12-24T13:42:51.499Z,23.21
2022-12-24T13:43:51.486Z,23.15
2022-12-24T13:44:51.490Z,23.07
2022-12-24T13:45:51.633Z,23.07
2022-12-24T13:46:51.484Z,23.09
2022-12-24T13:47:51.491Z,23.06
2022-12-24T13:48:51.465Z,23.14
2022-12-24T13:49:51.470Z,23.03
2022-12-24T13:50:51.493Z,23.03
2022-12-24T13:51:51.456Z,23.04
2022-12-24T13:52:51.485Z,23.00
2022-12-24T13:53:51.475Z,23.01
2022-12-24T13:54:51.476Z,23.07
2022-12-24T13:55:51.449Z,22.97
2022-12-24T13:56:51.455Z,22.91
2022-12-24T13:57:51.501Z,22.94
2022-12-24T13:58:51.442Z,22.85
2022-12-24T13:59:51.439Z,22.89
2022-12-24T14:00:51.547Z,22.86
2022-12-24T14:01:51.581Z,22.81
2022-12-24T14:02:51.553Z,22.86
2022-12-24T14:03:51.440Z,22.78
2022-12-24T14:04:51.436Z,22.82
2022-12-24T14:05:51.425Z,22.82
2022-12-24T14:06:51.429Z,22.82
2022-12-24T14:07:51.441Z,22.79
2022-12-24T14:08:51.412Z,22.71
2022-12-24T14:09:51.421Z,22.73
2022-12-24T14:10:51.412Z,22.79
2022-12-24T14:11:51.411Z,22.71
2022-12-24T14:12:51.426Z,22.75
2022-12-24T14:13:51.452Z,22.70
2022-12-24T14:14:51.413Z,22.70
2022-12-24T14:15:51.433Z,22.70
2022-12-24T14:16:51.472Z,22.57
2022-12-24T14:17:51.409Z,22.60
2022-12-24T14:18:51.384Z,22.61
2022-12-24T14:19:51.389Z,22.67
2022-12-24T14:20:51.390Z,22.66
2022-12-24T14:21:51.400Z,22.59
2022-12-24T14:22:51.374Z,22.57
2022-12-24T14:23:51.407Z,22.55
2022-12-24T14:24:51.377Z,22.57
2022-12-24T14:25:51.394Z,22.46
2022-12-24T14:26:51.381Z,22.48
2022-12-24T14:27:51.364Z,22.51
2022-12-24T14:28:51.374Z,22.45
2022-12-24T14:29:51.358Z,22.44
2022-12-24T14:30:51.369Z,22.51
2022-12-24T14:31:51.412Z,22.45
2022-12-24T14:32:51.350Z,22.46
2022-12-24T14:33:51.351Z,22.39
2022-12-24T14:34:51.335Z,22.42
2022-12-24T14:35:51.347Z,22.38
2022-12-24T14:36:51.379Z,22.39
2022-12-24T14:37:51.321Z,22.31
2022-12-24T14:38:51.320Z,22.34
2022-12-24T14:39:51.323Z,22.33
2022-12-24T14:40:51.321Z,22.23
2022-12-24T14:41:51.337Z,22.23
2022-12-24T14:42:51.315Z,22.27
2022-12-24T14:43:51.316Z,22.29
2022-12-24T14:44:51.300Z,22.22
2022-12-24T14:45:51.389Z,22.26
2022-12-24T14:46:51.312Z,22.27
2022-12-24T14:47:51.304Z,22.29
2022-12-24T14:48:51.315Z,22.20
2022-12-24T14:49:51.291Z,22.24
2022-12-24T14:50:51.333Z,22.11
2022-12-24T14:51:51.271Z,22.14
2022-12-24T14:53:10.520Z,22.12
2022-12-24T14:53:51.278Z,22.20
2022-12-24T14:54:51.273Z,22.24
2022-12-24T14:55:51.310Z,22.18
2022-12-24T14:56:51.300Z,22.18
2022-12-24T14:57:51.296Z,22.14
2022-12-24T14:58:51.273Z,22.12
2022-12-24T14:59:51.250Z,22.12
2022-12-24T15:00:51.277Z,22.12
2022-12-24T15:01:51.442Z,22.11
2022-12-24T15:02:51.482Z,22.08
2022-12-24T15:03:51.260Z,22.07
2022-12-24T15:04:51.253Z,22.07
2022-12-24T15:05:51.233Z,22.04
2022-12-24T15:06:51.237Z,22.00
2022-12-24T15:07:51.239Z,22.00
2022-12-24T15:08:51.218Z,22.02
2022-12-24T15:09:51.229Z,21.96
2022-12-24T15:10:51.231Z,21.97
2022-12-24T15:11:51.210Z,21.96
2022-12-24T15:12:51.205Z,21.93
2022-12-24T15:13:51.202Z,21.89
2022-12-24T15:14:51.214Z,21.94
2022-12-24T15:15:52.934Z,21.89
2022-12-24T15:16:51.241Z,21.92
2022-12-24T15:17:51.197Z,21.82
2022-12-24T15:18:52.919Z,21.85
2022-12-24T15:19:51.181Z,21.82
2022-12-24T15:20:51.199Z,21.80
2022-12-24T15:21:51.177Z,21.89
2022-12-24T15:22:51.174Z,21.80
2022-12-24T15:23:51.171Z,21.74
2022-12-24T15:24:51.188Z,21.78
2022-12-24T15:25:51.174Z,21.77
2022-12-24T15:26:51.159Z,21.76
2022-12-24T15:27:51.172Z,21.73
2022-12-24T15:28:53.025Z,21.71
2022-12-24T15:29:51.147Z,21.74
2022-12-24T15:30:51.199Z,21.66
2022-12-24T15:31:51.165Z,21.68
2022-12-24T15:32:51.275Z,21.70
2022-12-24T15:33:51.136Z,21.66
2022-12-24T15:34:51.446Z,21.62
2022-12-24T15:35:51.121Z,21.68
2022-12-24T15:36:51.118Z,21.62
2022-12-24T15:37:51.110Z,21.66
2022-12-24T15:38:51.122Z,21.61
2022-12-24T15:39:51.109Z,21.68
2022-12-24T15:40:51.148Z,21.62
2022-12-24T15:41:51.104Z,21.53
2022-12-24T15:42:51.096Z,21.67
2022-12-24T15:43:51.089Z,21.66
2022-12-24T15:44:51.102Z,21.53
2022-12-24T15:45:51.124Z,21.56
2022-12-24T15:46:51.095Z,21.49
2022-12-24T15:47:51.087Z,21.56
2022-12-24T15:48:51.100Z,21.58
2022-12-24T15:49:51.075Z,21.55
2022-12-24T15:50:51.068Z,21.48
2022-12-24T15:53:18.580Z,21.48
2022-12-24T15:53:51.050Z,21.55
2022-12-24T15:54:57.387Z,21.49
2022-12-24T15:55:51.051Z,21.48
2022-12-24T15:56:51.052Z,21.49
2022-12-24T15:57:51.047Z,21.46
2022-12-24T15:58:51.034Z,21.49
2022-12-24T15:59:51.057Z,21.46
2022-12-24T16:00:51.029Z,21.51
2022-12-24T16:13:01.862Z,21.34
2022-12-24T16:14:01.874Z,21.36
2022-12-24T16:15:01.822Z,21.28
2022-12-24T16:16:01.935Z,21.21
2022-12-24T16:17:01.793Z,21.25
2022-12-24T16:18:01.817Z,21.21
2022-12-24T16:19:01.782Z,21.27
2022-12-24T16:20:01.777Z,21.27
2022-12-24T16:21:01.800Z,21.31
2022-12-24T16:22:01.782Z,21.25
2022-12-24T16:23:01.759Z,21.21
2022-12-24T16:24:01.758Z,21.23
2022-12-24T16:25:01.754Z,21.15
2022-12-24T16:26:01.753Z,21.23
2022-12-24T16:27:01.745Z,21.22
2022-12-24T16:28:04.618Z,21.19
2022-12-24T16:29:01.765Z,21.19
2022-12-24T16:30:01.778Z,21.22
2022-12-24T16:31:01.784Z,21.21
2022-12-24T16:32:01.717Z,21.21
2022-12-24T16:33:01.722Z,21.19
2022-12-24T16:34:01.718Z,21.21
2022-12-24T16:35:01.728Z,21.18
2022-12-24T16:36:01.703Z,21.19
2022-12-24T16:37:01.698Z,21.19
2022-12-24T16:38:01.709Z,21.15
2022-12-24T16:39:01.704Z,21.23
2022-12-24T16:40:01.709Z,21.19
2022-12-24T16:41:01.722Z,21.19
2022-12-24T16:42:01.707Z,21.21
2022-12-24T16:43:01.678Z,21.19
2022-12-24T16:44:01.680Z,21.16
2022-12-24T16:45:01.671Z,21.23
2022-12-24T16:46:01.814Z,21.19
2022-12-24T16:47:01.679Z,21.19
2022-12-24T16:48:01.673Z,21.19
2022-12-24T16:49:01.651Z,21.23
2022-12-24T16:50:01.646Z,21.22
2022-12-24T16:51:01.658Z,21.23
2022-12-24T16:52:01.648Z,21.23
2022-12-24T16:53:01.627Z,21.18
2022-12-24T16:54:01.626Z,21.21
2022-12-24T16:55:01.634Z,21.21
2022-12-24T16:56:01.636Z,21.22
2022-12-24T16:57:01.636Z,21.21
2022-12-24T16:58:01.632Z,21.22
2022-12-24T16:59:01.608Z,21.21
2022-12-24T17:00:01.612Z,21.22
2022-12-24T17:01:01.635Z,21.27
2022-12-24T17:02:01.675Z,21.18
2022-12-24T17:03:01.788Z,21.19
2022-12-24T17:04:01.635Z,21.22
2022-12-24T17:05:01.598Z,21.23
2022-12-24T17:06:01.584Z,21.27
2022-12-24T17:07:01.581Z,21.25
2022-12-24T17:08:01.570Z,21.19
2022-12-24T17:09:01.571Z,21.13
2022-12-24T17:10:01.565Z,21.22
2022-12-24T17:11:01.558Z,21.19
2022-12-24T17:12:01.570Z,21.22
2022-12-24T17:13:01.584Z,21.19
2022-12-24T17:14:07.900Z,21.21